Time;durP1;ratioP1;P1;durP2;ratioP2;P2;SDS_P1;SDS_P2;PMS_P1;PMS_P2;Temp;Humidity;BMP_temperature;BMP_pressure;BME280_temperature;BME280_humidity;BME280_pressure;Samples;Min_cycle;Max_cycle;Signal;HPM_P1;HPM_P2
2020/03/31 00:01:18;;;;;;;21.2;16.4;;;;;;;;;;;;;
2020/03/31 00:03:43;;;;;;;24.2;17.7;;;;;;;;;;;;;
2020/03/31 00:06:08;;;;;;;25;17.7;;;;;;;;;;;;;
2020/03/31 00:08:33;;;;;;;23.5;17.6;;;;;;;;;;;;;
2020/03/31 00:10:58;;;;;;;22.8;16.9;;;;;;;;;;;;;
2020/03/31 00:13:24;;;;;;;21.9;15.9;;;;;;;;;;;;;
2020/03/31 00:15:49;;;;;;;22.4;18.7;;;;;;;;;;;;;
2020/03/31 00:18:14;;;;;;;22.9;16.6;;;;;;;;;;;;;
2020/03/31 00:20:39;;;;;;;22.5;16;;;;;;;;;;;;;
2020/03/31 00:23:04;;;;;;;22.2;16.4;;;;;;;;;;;;;
2020/03/31 00:25:29;;;;;;;20.1;15.4;;;;;;;;;;;;;
2020/03/31 00:27:54;;;;;;;22.2;16.1;;;;;;;;;;;;;
2020/03/31 00:30:19;;;;;;;20.4;15.4;;;;;;;;;;;;;
2020/03/31 00:32:44;;;;;;;20.5;15.6;;;;;;;;;;;;;
2020/03/31 00:35:10;;;;;;;20.5;15.4;;;;;;;;;;;;;
2020/03/31 00:37:35;;;;;;;18.6;15;;;;;;;;;;;;;
2020/03/31 00:40:00;;;;;;;21.4;15.8;;;;;;;;;;;;;
2020/03/31 00:42:25;;;;;;;19.3;15.6;;;;;;;;;;;;;
2020/03/31 00:44:50;;;;;;;20.7;15.4;;;;;;;;;;;;;
2020/03/31 00:47:15;;;;;;;20;15.7;;;;;;;;;;;;;
2020/03/31 00:49:40;;;;;;;21.3;15.1;;;;;;;;;;;;;
2020/03/31 00:52:05;;;;;;;19.9;15.5;;;;;;;;;;;;;
2020/03/31 00:54:31;;;;;;;22.4;16.5;;;;;;;;;;;;;
2020/03/31 00:56:56;;;;;;;21.6;15.8;;;;;;;;;;;;;
2020/03/31 00:59:21;;;;;;;19.4;14.9;;;;;;;;;;;;;
2020/03/31 01:01:46;;;;;;;20.9;15.5;;;;;;;;;;;;;
2020/03/31 01:04:11;;;;;;;19.7;15.5;;;;;;;;;;;;;
2020/03/31 01:06:36;;;;;;;19;15.3;;;;;;;;;;;;;
2020/03/31 01:09:01;;;;;;;20.6;15.3;;;;;;;;;;;;;
2020/03/31 01:11:26;;;;;;;19.5;14.9;;;;;;;;;;;;;
2020/03/31 01:13:51;;;;;;;21;15.5;;;;;;;;;;;;;
2020/03/31 01:16:16;;;;;;;17.8;14.4;;;;;;;;;;;;;
2020/03/31 01:18:41;;;;;;;22.3;15.3;;;;;;;;;;;;;
2020/03/31 01:21:06;;;;;;;20.5;15;;;;;;;;;;;;;
2020/03/31 01:26:09;;;;;;;20.7;15.1;;;;;;;;;;;;;
2020/03/31 01:28:22;;;;;;;18.6;14.8;;;;;;;;;;;;;
2020/03/31 01:30:47;;;;;;;19.8;15.1;;;;;;;;;;;;;
2020/03/31 01:33:12;;;;;;;20.1;15.6;;;;;;;;;;;;;
2020/03/31 01:35:37;;;;;;;19.9;15.2;;;;;;;;;;;;;
2020/03/31 01:38:02;;;;;;;21.3;15.4;;;;;;;;;;;;;
2020/03/31 01:41:54;;;;;;;21.2;15.3;;;;;;;;;;;;;
2020/03/31 01:44:19;;;;;;;18.2;14.5;;;;;;;;;;;;;
2020/03/31 01:46:45;;;;;;;18.9;14.1;;;;;;;;;;;;;
2020/03/31 01:49:10;;;;;;;18.6;14.6;;;;;;;;;;;;;
2020/03/31 01:51:35;;;;;;;18.6;14.4;;;;;;;;;;;;;
2020/03/31 01:54:00;;;;;;;21.3;15.1;;;;;;;;;;;;;
2020/03/31 01:56:25;;;;;;;19.9;14.3;;;;;;;;;;;;;
2020/03/31 01:58:50;;;;;;;20.7;15.5;;;;;;;;;;;;;
2020/03/31 02:01:15;;;;;;;19.2;14.7;;;;;;;;;;;;;
2020/03/31 02:03:41;;;;;;;18.9;14.3;;;;;;;;;;;;;
2020/03/31 02:06:06;;;;;;;20.7;14.4;;;;;;;;;;;;;
2020/03/31 02:08:31;;;;;;;18.9;14.2;;;;;;;;;;;;;
2020/03/31 02:10:56;;;;;;;18.5;14.5;;;;;;;;;;;;;
2020/03/31 02:13:21;;;;;;;18.5;14.4;;;;;;;;;;;;;
2020/03/31 02:15:46;;;;;;;18;13.8;;;;;;;;;;;;;
2020/03/31 02:18:11;;;;;;;19.3;13.7;;;;;;;;;;;;;
2020/03/31 02:20:36;;;;;;;19.6;13.9;;;;;;;;;;;;;
2020/03/31 02:23:02;;;;;;;19.8;14.7;;;;;;;;;;;;;
2020/03/31 02:25:27;;;;;;;21.9;14.9;;;;;;;;;;;;;
2020/03/31 02:27:52;;;;;;;20.4;14.7;;;;;;;;;;;;;
2020/03/31 02:30:17;;;;;;;18.6;14.1;;;;;;;;;;;;;
2020/03/31 02:32:42;;;;;;;20.7;14.3;;;;;;;;;;;;;
2020/03/31 02:35:07;;;;;;;18.3;13.7;;;;;;;;;;;;;
2020/03/31 02:37:32;;;;;;;17.8;14.2;;;;;;;;;;;;;
2020/03/31 02:39:58;;;;;;;17.2;13.2;;;;;;;;;;;;;
2020/03/31 02:42:23;;;;;;;60.5;44.9;;;;;;;;;;;;;
2020/03/31 02:44:48;;;;;;;18.8;14.1;;;;;;;;;;;;;
2020/03/31 02:47:14;;;;;;;19.7;13.9;;;;;;;;;;;;;
2020/03/31 02:50:11;;;;;;;16.8;13.3;;;;;;;;;;;;;
2020/03/31 02:52:03;;;;;;;16.6;12.9;;;;;;;;;;;;;
2020/03/31 02:54:28;;;;;;;18.5;13.3;;;;;;;;;;;;;
2020/03/31 02:56:53;;;;;;;17.6;13.2;;;;;;;;;;;;;
2020/03/31 02:59:18;;;;;;;18.4;13.5;;;;;;;;;;;;;
2020/03/31 03:01:54;;;;;;;18.7;13.7;;;;;;;;;;;;;
2020/03/31 03:04:08;;;;;;;16.8;13.4;;;;;;;;;;;;;
2020/03/31 03:06:34;;;;;;;17.3;13.6;;;;;;;;;;;;;
2020/03/31 03:08:59;;;;;;;15.3;12.9;;;;;;;;;;;;;
2020/03/31 03:11:24;;;;;;;18.6;13.8;;;;;;;;;;;;;
2020/03/31 03:13:49;;;;;;;17.3;13.3;;;;;;;;;;;;;
2020/03/31 03:16:14;;;;;;;19.3;13.7;;;;;;;;;;;;;
2020/03/31 03:18:39;;;;;;;18.8;13.3;;;;;;;;;;;;;
2020/03/31 03:21:04;;;;;;;16.6;12.9;;;;;;;;;;;;;
2020/03/31 03:23:29;;;;;;;17.4;12.3;;;;;;;;;;;;;
2020/03/31 03:25:54;;;;;;;16.4;12.7;;;;;;;;;;;;;
2020/03/31 03:28:19;;;;;;;20.1;12.8;;;;;;;;;;;;;
2020/03/31 03:30:45;;;;;;;19.7;13;;;;;;;;;;;;;
2020/03/31 03:33:10;;;;;;;16.4;12.2;;;;;;;;;;;;;
2020/03/31 03:35:35;;;;;;;17.1;13.3;;;;;;;;;;;;;
2020/03/31 03:38:00;;;;;;;19.9;12.9;;;;;;;;;;;;;
2020/03/31 03:40:25;;;;;;;19.1;13.2;;;;;;;;;;;;;
2020/03/31 03:42:50;;;;;;;15.3;11.3;;;;;;;;;;;;;
2020/03/31 03:45:15;;;;;;;15.3;11.7;;;;;;;;;;;;;
2020/03/31 03:47:40;;;;;;;19.7;12.3;;;;;;;;;;;;;
2020/03/31 03:50:05;;;;;;;15.7;11.4;;;;;;;;;;;;;
2020/03/31 03:52:30;;;;;;;18.3;12.2;;;;;;;;;;;;;
2020/03/31 03:54:56;;;;;;;19.4;12.2;;;;;;;;;;;;;
2020/03/31 03:57:21;;;;;;;19.8;12.7;;;;;;;;;;;;;
2020/03/31 03:59:55;;;;;;;19.8;13.1;;;;;;;;;;;;;
2020/03/31 04:02:30;;;;;;;24.2;14.7;;;;;;;-4.06;79.47656;943.7243;;;;
2020/03/31 04:04:55;;;;;;;19.2;14;;;;;;;-4.06;79.2998;943.758;;;;
2020/03/31 04:07:20;;;;;;;19.6;13.8;;;;;;;-4.27;79.64648;943.7245;;;;
2020/03/31 04:09:45;;;;;;;24.5;13.9;;;;;;;-4.31;79.86914;943.6443;;;;
2020/03/31 04:12:10;;;;;;;17.4;12.6;;;;;;;-4.41;80.06934;943.7035;;;;
2020/03/31 04:14:35;;;;;;;16.6;11.9;;;;;;;-4.56;80.57031;943.757;;;;
2020/03/31 04:17:00;;;;;;;17.5;12.7;;;;;;;-4.73;81.57422;943.6629;;;;
2020/03/31 04:19:25;;;;;;;18.7;11.8;;;;;;;-4.78;81.89551;943.6595;;;;
2020/03/31 04:21:51;;;;;;;17.3;11.8;;;;;;;-4.76;81.33594;943.6389;;;;
2020/03/31 04:24:16;;;;;;;19.4;12.3;;;;;;;-4.91;81.8584;943.6772;;;;
2020/03/31 04:26:41;;;;;;;31;19.4;;;;;;;-4.95;82.21289;943.6164;;;;
2020/03/31 04:29:06;;;;;;;21.6;12.7;;;;;;;-5.17;83.18262;943.6027;;;;
2020/03/31 04:31:31;;;;;;;18.7;12.9;;;;;;;-5.28;84.06055;943.7036;;;;
2020/03/31 04:33:56;;;;;;;23.4;15;;;;;;;-5.22;84.1084;943.707;;;;
2020/03/31 04:36:21;;;;;;;22.7;15.1;;;;;;;-5.06;83.46777;943.6537;;;;
2020/03/31 04:38:46;;;;;;;23.2;13.6;;;;;;;-5.11;82.98438;943.6902;;;;
2020/03/31 04:41:12;;;;;;;21;13.1;;;;;;;-5.1;83.05176;943.723;;;;
2020/03/31 04:43:37;;;;;;;22.2;13.5;;;;;;;-5.18;83.04688;943.6889;;;;
2020/03/31 04:46:02;;;;;;;21.4;13.6;;;;;;;-4.97;82.68066;943.6878;;;;
2020/03/31 04:48:27;;;;;;;19.6;13.6;;;;;;;-4.86;81.93359;943.6776;;;;
2020/03/31 04:50:52;;;;;;;20.9;13.5;;;;;;;-4.97;81.71191;943.6755;;;;
2020/03/31 04:53:17;;;;;;;19.5;12.4;;;;;;;-4.89;81.6748;943.6188;;;;
2020/03/31 04:55:43;;;;;;;16.7;12;;;;;;;-4.77;80.86035;943.5667;;;;
2020/03/31 04:58:08;;;;;;;17.7;12.9;;;;;;;-5.02;81.1875;943.6525;;;;
2020/03/31 05:00:33;;;;;;;19.8;12.7;;;;;;;-5.03;81.23926;943.5659;;;;
2020/03/31 05:02:58;;;;;;;17.9;12.3;;;;;;;-5.23;81.83887;943.7173;;;;
2020/03/31 05:05:24;;;;;;;15.9;11.9;;;;;;;-5.34;82.42383;943.7542;;;;
2020/03/31 05:07:49;;;;;;;17.3;12.2;;;;;;;-5.36;83.07813;943.7263;;;;
2020/03/31 05:10:14;;;;;;;19.8;12.8;;;;;;;-5.22;83.03906;943.6777;;;;
2020/03/31 05:12:40;;;;;;;23.2;13.3;;;;;;;-5.12;83.08105;943.8198;;;;
2020/03/31 05:15:05;;;;;;;17.4;12.4;;;;;;;-4.91;82.22168;943.7751;;;;
2020/03/31 05:17:30;;;;;;;26.1;13.2;;;;;;;-4.86;81.38477;943.8478;;;;
2020/03/31 05:19:55;;;;;;;20.2;12.7;;;;;;;-4.7;81.07324;943.8417;;;;
2020/03/31 05:22:20;;;;;;;17.8;11.9;;;;;;;-4.55;80.32031;943.9203;;;;
2020/03/31 05:24:45;;;;;;;15.1;10.9;;;;;;;-4.68;79.77832;943.9509;;;;
2020/03/31 05:27:10;;;;;;;18.8;11.4;;;;;;;-4.75;79.97168;943.868;;;;
2020/03/31 05:29:36;;;;;;;21;11.7;;;;;;;-4.86;80.45801;943.8677;;;;
2020/03/31 05:32:01;;;;;;;18.3;11.9;;;;;;;-4.87;80.69824;943.9533;;;;
2020/03/31 05:34:26;;;;;;;20.7;11.3;;;;;;;-4.79;80.45898;943.9277;;;;
2020/03/31 05:36:51;;;;;;;16.4;11;;;;;;;-4.57;79.92969;943.9008;;;;
2020/03/31 05:39:16;;;;;;;27.5;12.3;;;;;;;-4.69;79.56543;943.9363;;;;
2020/03/31 05:41:42;;;;;;;24.9;12.3;;;;;;;-4.84;80.23145;943.9622;;;;
2020/03/31 05:44:06;;;;;;;19.4;12.4;;;;;;;-4.71;81.0166;943.8881;;;;
2020/03/31 05:46:32;;;;;;;24.2;12.7;;;;;;;-4.41;80.46582;943.8217;;;;
2020/03/31 05:49:02;;;;;;;22.4;12.3;;;;;;;-4.12;79.53027;943.9781;;;;
2020/03/31 05:51:24;;;;;;;18.7;11.6;;;;;;;-3.67;77.77246;943.9697;;;;
2020/03/31 05:53:47;;;;;;;20.3;11.5;;;;;;;-3.21;75.4834;943.9501;;;;
2020/03/31 05:56:12;;;;;;;17;10.9;;;;;;;-2.76;72.84082;943.9786;;;;
2020/03/31 05:58:37;;;;;;;16.1;10.8;;;;;;;-1.97;70.7373;944.0298;;;;
2020/03/31 06:01:04;;;;;;;14.7;11.6;;;;;;;-1.44;71.65918;943.9714;;;;
2020/03/31 06:03:28;;;;;;;14.4;9.9;;;;;;;-0.28;66.55762;943.9277;;;;
2020/03/31 06:05:53;;;;;;;13.4;8.8;;;;;;;0.88;62.33203;943.967;;;;
2020/03/31 06:08:18;;;;;;;11.3;8.5;;;;;;;2.02;57.79883;943.9465;;;;
2020/03/31 06:10:45;;;;;;;13.6;8.6;;;;;;;2.88;54.53027;943.9261;;;;
2020/03/31 06:13:10;;;;;;;12.7;8.4;;;;;;;3.81;51.08594;943.9345;;;;
2020/03/31 06:15:35;;;;;;;11.8;7.9;;;;;;;4.41;48.61426;943.9812;;;;
2020/03/31 06:18:00;;;;;;;9.5;7.7;;;;;;;4.02;48.98633;944.0289;;;;
2020/03/31 06:20:25;;;;;;;9.7;7.4;;;;;;;4.58;47.77637;944.0637;;;;
2020/03/31 06:22:50;;;;;;;8.8;7.6;;;;;;;4.92;46.83496;944.1199;;;;
2020/03/31 06:25:16;;;;;;;11.2;8;;;;;;;5.44;45.68457;944.0873;;;;
2020/03/31 06:27:43;;;;;;;8.8;7.4;;;;;;;5.73;44.72266;944.1442;;;;
2020/03/31 06:30:09;;;;;;;9.9;6.7;;;;;;;5.89;43.38281;944.1171;;;;
2020/03/31 06:32:34;;;;;;;9.2;6.2;;;;;;;6.15;43.32031;944.1075;;;;
2020/03/31 06:34:59;;;;;;;53.3;48;;;;;;;6.65;42.15918;944.1049;;;;
2020/03/31 06:37:25;;;;;;;11.2;7.3;;;;;;;6.61;41.12598;944.0956;;;;
2020/03/31 06:39:50;;;;;;;8;7;;;;;;;6.92;41.17773;944.0854;;;;
2020/03/31 06:42:15;;;;;;;8.7;6;;;;;;;7.58;39.74512;944.0989;;;;
2020/03/31 06:44:40;;;;;;;8.4;6.2;;;;;;;7.88;39.95508;944.0641;;;;
2020/03/31 06:47:05;;;;;;;6.9;5.6;;;;;;;7.18;38.87012;944.1552;;;;
2020/03/31 06:49:30;;;;;;;7.1;6.2;;;;;;;7.23;39.20215;944.1133;;;;
2020/03/31 06:51:55;;;;;;;14.7;7.4;;;;;;;5.63;43.36816;944.2488;;;;
2020/03/31 06:54:20;;;;;;;11.4;7.4;;;;;;;5.53;44.64453;944.1996;;;;
2020/03/31 06:56:46;;;;;;;13.2;8.5;;;;;;;4.88;46.32422;944.1161;;;;
2020/03/31 06:59:11;;;;;;;13.6;8.2;;;;;;;5.26;47.18848;944.2104;;;;
2020/03/31 07:01:36;;;;;;;11.2;8.3;;;;;;;6;44.73926;944.2007;;;;
2020/03/31 07:04:01;;;;;;;13.3;9;;;;;;;5.72;44.63086;944.2441;;;;
2020/03/31 07:06:26;;;;;;;12.5;8.4;;;;;;;5.49;45.04688;944.2156;;;;
2020/03/31 07:08:52;;;;;;;7.8;6.6;;;;;;;6.05;43.8291;944.2081;;;;
2020/03/31 07:11:17;;;;;;;9;6.7;;;;;;;6.1;43.06641;944.1981;;;;
2020/03/31 07:13:42;;;;;;;7.7;6.4;;;;;;;6.15;42.35938;944.2388;;;;
2020/03/31 07:16:07;;;;;;;10.8;7;;;;;;;6.03;43.24023;944.2131;;;;
2020/03/31 07:18:32;;;;;;;13.4;7.5;;;;;;;7.22;42.77051;944.193;;;;
2020/03/31 07:20:57;;;;;;;9.9;7.2;;;;;;;7.6;40.16602;944.1431;;;;
2020/03/31 07:23:22;;;;;;;9.3;7;;;;;;;7.4;40.28418;944.1939;;;;
2020/03/31 07:25:47;;;;;;;7.9;6.7;;;;;;;6.95;42.95801;944.1703;;;;
2020/03/31 07:28:12;;;;;;;12;7.2;;;;;;;7.06;40.52441;944.1688;;;;
2020/03/31 07:30:37;;;;;;;7.2;6;;;;;;;7.4;40.96387;944.205;;;;
2020/03/31 07:33:04;;;;;;;6.2;5.6;;;;;;;8.32;39.2793;944.1824;;;;
2020/03/31 07:35:29;;;;;;;15.3;13;;;;;;;8.92;38.38965;944.2007;;;;
2020/03/31 07:37:54;;;;;;;7.1;6.1;;;;;;;9.76;36.53906;944.166;;;;
2020/03/31 07:40:19;;;;;;;8.5;6.8;;;;;;;9.84;37.57227;944.1092;;;;
2020/03/31 07:42:44;;;;;;;8.2;5.9;;;;;;;10.11;36.91113;944.1628;;;;
2020/03/31 07:45:09;;;;;;;6.4;5.8;;;;;;;10.79;36.59277;944.0584;;;;
2020/03/31 07:47:34;;;;;;;12.3;11;;;;;;;10.38;34.62793;944.144;;;;
2020/03/31 07:49:59;;;;;;;7.1;6.2;;;;;;;9.34;36.57129;944.1678;;;;
2020/03/31 07:52:24;;;;;;;9;6.9;;;;;;;9.76;36.01563;944.0507;;;;
2020/03/31 07:54:49;;;;;;;6.8;5;;;;;;;11.21;34.61523;944.0892;;;;
2020/03/31 07:57:14;;;;;;;193.5;115.7;;;;;;;11.61;32.63184;944.092;;;;
2020/03/31 07:59:39;;;;;;;7.6;5.3;;;;;;;12.41;31.66016;944.0641;;;;
2020/03/31 08:02:05;;;;;;;84.6;55.5;;;;;;;12.16;30.79395;944.0058;;;;
2020/03/31 08:04:30;;;;;;;7.2;6.5;;;;;;;10.97;31.31543;944.077;;;;
2020/03/31 08:06:55;;;;;;;8.7;6;;;;;;;9.48;34.71582;944.0379;;;;
2020/03/31 08:09:39;;;;;;;10.1;5.7;;;;;;;11.46;31.60254;944.0203;;;;
2020/03/31 08:12:04;;;;;;;7.6;5.8;;;;;;;11.76;34.12012;944.0768;;;;
2020/03/31 08:14:29;;;;;;;8.3;5.8;;;;;;;11.95;30.60645;944.0201;;;;
2020/03/31 08:16:54;;;;;;;8;5.2;;;;;;;12.69;28.70898;943.9807;;;;
2020/03/31 08:19:19;;;;;;;6.3;5.4;;;;;;;12.72;30.03125;943.9187;;;;
2020/03/31 08:21:45;;;;;;;8.4;6.3;;;;;;;12.84;28.68457;943.913;;;;
2020/03/31 08:24:24;;;;;;;6.6;5.9;;;;;;;13.19;30.04004;943.9135;;;;
2020/03/31 08:26:49;;;;;;;5.4;4.8;;;;;;;13.89;31.84863;943.8812;;;;
2020/03/31 08:29:14;;;;;;;5.1;4.3;;;;;;;15.1;27.80664;943.8424;;;;
2020/03/31 08:31:39;;;;;;;7.7;5.2;;;;;;;15.97;25.9082;943.8328;;;;
2020/03/31 08:34:16;;;;;;;7.5;4.9;;;;;;;16.64;25.60059;943.789;;;;
2020/03/31 08:36:41;;;;;;;6.3;4.6;;;;;;;16.49;23.43848;943.6881;;;;
2020/03/31 08:39:06;;;;;;;5.9;5;;;;;;;14.19;24.7207;943.7333;;;;
2020/03/31 08:41:31;;;;;;;7.4;5.2;;;;;;;15.19;25.88477;943.7068;;;;
2020/03/31 08:43:56;;;;;;;6.9;5.2;;;;;;;16.08;23.28906;943.6409;;;;
2020/03/31 08:46:21;;;;;;;6.2;4.8;;;;;;;16.12;25.73242;943.6592;;;;
2020/03/31 08:48:46;;;;;;;5.1;4.6;;;;;;;17.17;24.1709;943.5773;;;;
2020/03/31 08:51:15;;;;;;;7.7;5.3;;;;;;;14.11;25.50977;943.6584;;;;
2020/03/31 08:53:37;;;;;;;5.9;4.8;;;;;;;13.84;25.98926;943.5567;;;;
2020/03/31 08:56:01;;;;;;;8.8;5;;;;;;;15.07;26.89258;943.572;;;;
2020/03/31 08:58:27;;;;;;;4.4;4;;;;;;;15.64;25.01074;943.524;;;;
2020/03/31 09:00:52;;;;;;;6.9;4.6;;;;;;;15.21;27.49121;943.463;;;;
2020/03/31 09:03:34;;;;;;;6.7;4.4;;;;;;;16.83;24.84668;943.4146;;;;
2020/03/31 09:05:59;;;;;;;4.6;4.1;;;;;;;16.89;23.92383;943.4326;;;;
2020/03/31 09:08:25;;;;;;;4.8;4.3;;;;;;;16.29;22.76855;943.3953;;;;
2020/03/31 09:10:49;;;;;;;6.4;3.9;;;;;;;16.72;25.03711;943.4172;;;;
2020/03/31 09:14:52;;;;;;;4.9;3.8;;;;;;;18.91;20.27441;943.3771;;;;
2020/03/31 09:17:17;;;;;;;4.6;3.9;;;;;;;20;19.46094;943.3801;;;;
2020/03/31 09:19:42;;;;;;;4.3;3.8;;;;;;;20.16;20.45996;943.2811;;;;
2020/03/31 09:22:07;;;;;;;4.8;3.8;;;;;;;20.22;19.98438;943.3553;;;;
2020/03/31 09:24:32;;;;;;;4.6;3.7;;;;;;;19.36;20.25977;943.4128;;;;
2020/03/31 09:26:58;;;;;;;4.9;4.3;;;;;;;19.3;20.91016;943.3524;;;;
2020/03/31 09:29:23;;;;;;;4.5;4.1;;;;;;;19.17;20.91504;943.384;;;;
2020/03/31 09:31:48;;;;;;;5.8;5.1;;;;;;;18.76;23.05957;943.3926;;;;
2020/03/31 09:34:13;;;;;;;6.7;5.2;;;;;;;18.31;23.62891;943.354;;;;
2020/03/31 09:36:38;;;;;;;6.5;5.3;;;;;;;17.26;25.16113;943.3903;;;;
2020/03/31 09:39:25;;;;;;;7.6;5.4;;;;;;;16.98;26.28125;943.4441;;;;
2020/03/31 09:41:50;;;;;;;10.9;5.4;;;;;;;16.86;26.59766;943.4167;;;;
2020/03/31 09:44:15;;;;;;;7.5;5.2;;;;;;;16.2;28.63965;943.4138;;;;
2020/03/31 09:46:40;;;;;;;5.7;5.1;;;;;;;16.59;26.73242;943.3225;;;;
2020/03/31 09:49:05;;;;;;;8.5;5.3;;;;;;;16.58;25.41113;943.3283;;;;
2020/03/31 09:51:41;;;;;;;6.3;4.8;;;;;;;16.1;28.1709;943.3194;;;;
2020/03/31 09:54:06;;;;;;;8.9;5.5;;;;;;;15.57;30.05469;943.3348;;;;
2020/03/31 09:56:31;;;;;;;6.3;5.3;;;;;;;15.05;29.92578;943.3795;;;;
2020/03/31 09:58:56;;;;;;;5.8;4.9;;;;;;;14.45;30.92188;943.3489;;;;
2020/03/31 10:01:21;;;;;;;6.3;5;;;;;;;15.13;29.49219;943.236;;;;
2020/03/31 10:03:47;;;;;;;5;4.5;;;;;;;14.68;29.11719;943.3376;;;;
2020/03/31 10:06:13;;;;;;;6.4;3.9;;;;;;;14.03;29.11914;943.2969;;;;
2020/03/31 10:08:37;;;;;;;4.5;4.1;;;;;;;13.71;28.52344;943.3156;;;;
2020/03/31 10:11:02;;;;;;;6.4;4.5;;;;;;;13.95;28.30859;943.2794;;;;
2020/03/31 10:13:27;;;;;;;4.6;4.1;;;;;;;14.08;28.06348;943.2491;;;;
2020/03/31 10:15:52;;;;;;;7.2;4.4;;;;;;;14.27;29.59668;943.2981;;;;
2020/03/31 10:18:17;;;;;;;5.1;4.5;;;;;;;14.28;28.89453;943.2388;;;;
2020/03/31 10:20:42;;;;;;;6.1;4.5;;;;;;;14.05;28.02734;943.0928;;;;
2020/03/31 10:23:07;;;;;;;5.3;4.8;;;;;;;14.21;28.02539;943.2022;;;;
2020/03/31 10:25:48;;;;;;;5.4;4.5;;;;;;;14.2;28.52051;943.1477;;;;
2020/03/31 10:28:13;;;;;;;7.1;4.7;;;;;;;14.01;29.38281;943.1987;;;;
2020/03/31 10:30:38;;;;;;;4.9;4.4;;;;;;;14.63;27.9502;943.1853;;;;
2020/03/31 10:33:03;;;;;;;5.6;4.5;;;;;;;15.31;26.38867;943.1303;;;;
2020/03/31 10:35:28;;;;;;;5.5;4.9;;;;;;;14.24;28.16602;943.1209;;;;
2020/03/31 10:37:53;;;;;;;6.1;5;;;;;;;13.96;29.91992;943.0424;;;;
2020/03/31 10:40:57;;;;;;;7.3;4.3;;;;;;;14.48;27.38672;943.1286;;;;
2020/03/31 10:42:58;;;;;;;8.3;4.6;;;;;;;14.39;25.71094;943.0925;;;;
2020/03/31 10:45:23;;;;;;;5.4;4.5;;;;;;;13.05;27.92871;943.0558;;;;
2020/03/31 10:47:49;;;;;;;5.7;4.6;;;;;;;13.03;28.75391;943.1139;;;;
2020/03/31 10:50:48;;;;;;;6.5;4.8;;;;;;;12.73;30.12305;943.1125;;;;
2020/03/31 10:53:15;;;;;;;7.1;4.7;;;;;;;12.09;30.78906;942.9822;;;;
2020/03/31 10:55:59;;;;;;;6.3;4.9;;;;;;;12.17;31.64258;943.0892;;;;
2020/03/31 10:58:24;;;;;;;6.7;5;;;;;;;12.5;30.24512;943.0804;;;;
2020/03/31 11:00:50;;;;;;;7.6;4.9;;;;;;;12.53;31.40527;943.1047;;;;
2020/03/31 11:03:14;;;;;;;6.4;4.7;;;;;;;12.89;29.82324;943.0461;;;;
2020/03/31 11:05:40;;;;;;;6.9;4.7;;;;;;;12.48;29.53223;943.0563;;;;
2020/03/31 11:08:04;;;;;;;6.2;4.7;;;;;;;12.15;32.70801;942.9853;;;;
2020/03/31 11:10:30;;;;;;;6.5;4.9;;;;;;;12.52;29.85645;942.9448;;;;
2020/03/31 11:14:51;;;;;;;5.9;5;;;;;;;14.51;27.16992;942.9852;;;;
2020/03/31 11:17:17;;;;;;;6.4;4.4;;;;;;;14.26;26.07227;942.9944;;;;
2020/03/31 11:19:42;;;;;;;5.1;4;;;;;;;15.06;25.88867;942.9208;;;;
2020/03/31 11:22:07;;;;;;;4.8;4.3;;;;;;;15.66;25.04688;942.9732;;;;
2020/03/31 11:24:32;;;;;;;5.1;4.5;;;;;;;13.34;28.42969;942.9783;;;;
2020/03/31 11:26:58;;;;;;;6.8;4.4;;;;;;;13.78;28.57324;942.9061;;;;
2020/03/31 11:29:23;;;;;;;4.8;4.2;;;;;;;13.12;29.69043;942.9995;;;;
2020/03/31 11:31:48;;;;;;;5.7;4.6;;;;;;;13.91;28.6748;942.9422;;;;
2020/03/31 11:34:17;;;;;;;6.2;4.3;;;;;;;14.1;30.4248;942.9992;;;;
2020/03/31 11:36:52;;;;;;;5.2;4.5;;;;;;;15.92;26.49414;942.9663;;;;
2020/03/31 11:39:18;;;;;;;7.1;4.3;;;;;;;16.7;25.96289;942.9783;;;;
2020/03/31 11:41:43;;;;;;;4.3;3.7;;;;;;;16.81;24.71875;942.9261;;;;
2020/03/31 11:44:09;;;;;;;5;3.9;;;;;;;16.64;24.55859;942.9503;;;;
2020/03/31 11:46:34;;;;;;;5;3.8;;;;;;;16.79;25.36621;942.8795;;;;
2020/03/31 11:48:59;;;;;;;5.3;3.8;;;;;;;16.46;25.90234;942.8844;;;;
2020/03/31 11:51:24;;;;;;;4.9;3.8;;;;;;;16.43;25.17188;942.8314;;;;
2020/03/31 11:53:49;;;;;;;4.4;3.7;;;;;;;16.01;25.73633;942.9066;;;;
2020/03/31 11:56:14;;;;;;;6.1;4.2;;;;;;;16.26;27.13965;942.8778;;;;
2020/03/31 11:58:39;;;;;;;5.8;3.9;;;;;;;15.67;25.78613;942.9114;;;;
2020/03/31 12:01:04;;;;;;;5.1;3.8;;;;;;;15.15;29.125;942.9167;;;;
2020/03/31 12:04:36;;;;;;;4.4;3.7;;;;;;;15.63;26.26855;942.8456;;;;
2020/03/31 12:07:02;;;;;;;5.5;3.7;;;;;;;16.61;24.30176;942.9148;;;;
2020/03/31 12:11:32;;;;;;;6.1;3.7;;;;;;;15.05;28.05664;942.8253;;;;
2020/03/31 12:14:08;;;;;;;7.6;4;;;;;;;15.53;28.23828;942.8276;;;;
2020/03/31 12:16:33;;;;;;;5.4;3.9;;;;;;;14.57;27.26563;942.8395;;;;
2020/03/31 12:19:03;;;;;;;5.1;4.2;;;;;;;13.99;29.50879;942.8616;;;;
2020/03/31 12:23:11;;;;;;;5.5;4.5;;;;;;;14.83;29.16113;942.9405;;;;
2020/03/31 12:25:36;;;;;;;6.3;4.5;;;;;;;13.87;29.67285;942.9844;;;;
2020/03/31 12:28:01;;;;;;;5.8;4.7;;;;;;;13.51;29.00391;942.9908;;;;
2020/03/31 12:30:26;;;;;;;5.9;4.4;;;;;;;13.37;31.5;942.8777;;;;
2020/03/31 12:32:51;;;;;;;5.6;4.6;;;;;;;13.61;30.03516;942.945;;;;
2020/03/31 12:35:16;;;;;;;4.8;4.1;;;;;;;15.93;27.01563;942.8499;;;;
2020/03/31 12:37:41;;;;;;;4.2;3.3;;;;;;;16;25.4707;942.8912;;;;
2020/03/31 12:40:50;;;;;;;3.6;2.9;;;;;;;16.06;23.66992;942.8399;;;;
2020/03/31 12:43:15;;;;;;;3.1;2.8;;;;;;;14.79;25.95313;942.9266;;;;
2020/03/31 12:45:40;;;;;;;3.6;2.9;;;;;;;14.35;25.36328;942.8697;;;;
2020/03/31 12:48:05;;;;;;;4.8;2.8;;;;;;;12.31;27.20508;942.9217;;;;
2020/03/31 12:50:31;;;;;;;3.9;3;;;;;;;11.1;28.44336;942.9883;;;;
2020/03/31 12:52:56;;;;;;;4.8;3.1;;;;;;;9.73;29.18555;942.9637;;;;
2020/03/31 12:55:21;;;;;;;3.8;3.4;;;;;;;9.08;31.75879;942.961;;;;
2020/03/31 12:57:46;;;;;;;4.8;3.5;;;;;;;8.57;34.45996;942.9576;;;;
2020/03/31 13:00:11;;;;;;;6.4;3.3;;;;;;;8.21;32.22852;942.9152;;;;
2020/03/31 13:02:36;;;;;;;4.7;3.6;;;;;;;7.36;35.49707;942.967;;;;
2020/03/31 13:05:01;;;;;;;4.7;3.2;;;;;;;7.41;33.60938;942.9738;;;;
2020/03/31 13:07:26;;;;;;;5.2;3.7;;;;;;;7.25;34.8877;942.9205;;;;
2020/03/31 13:09:51;;;;;;;5;3.3;;;;;;;7.22;36.1543;942.9995;;;;
2020/03/31 13:12:16;;;;;;;5.8;3.7;;;;;;;7.21;36.01758;942.9073;;;;
2020/03/31 13:14:42;;;;;;;5.2;3.8;;;;;;;6.97;35.33984;943.0002;;;;
2020/03/31 13:17:07;;;;;;;5.7;4;;;;;;;6.79;37.82715;942.9177;;;;
2020/03/31 13:19:32;;;;;;;5.4;3.9;;;;;;;6.56;39.31152;942.8959;;;;
2020/03/31 13:21:57;;;;;;;5.6;4.1;;;;;;;6.39;39.04688;942.981;;;;
2020/03/31 13:24:22;;;;;;;6.3;4.7;;;;;;;6.26;41.03516;942.9878;;;;
2020/03/31 13:26:47;;;;;;;6;4.7;;;;;;;6.07;41.68457;942.9956;;;;
2020/03/31 13:29:22;;;;;;;8.9;4.7;;;;;;;5.68;42.4707;942.8817;;;;
2020/03/31 13:31:47;;;;;;;7.9;5;;;;;;;5.63;43.25586;942.9792;;;;
2020/03/31 13:34:12;;;;;;;6.2;4.8;;;;;;;5.39;44.68652;942.9426;;;;
2020/03/31 13:36:37;;;;;;;6.8;4.7;;;;;;;5.55;44.00391;942.9841;;;;
2020/03/31 13:39:02;;;;;;;6.6;4.8;;;;;;;5.55;45.13184;942.9034;;;;
2020/03/31 13:41:27;;;;;;;8.7;4.5;;;;;;;6.28;43.15234;942.9275;;;;
2020/03/31 13:43:52;;;;;;;6.1;4.5;;;;;;;7.77;39.91016;942.949;;;;
2020/03/31 13:46:17;;;;;;;5.8;4;;;;;;;8.2;38.01953;942.8801;;;;
2020/03/31 13:48:42;;;;;;;5.5;3.9;;;;;;;8.54;38.2207;942.7985;;;;
2020/03/31 13:51:07;;;;;;;5.6;4.3;;;;;;;8.56;37.83496;942.8661;;;;
2020/03/31 13:53:33;;;;;;;6.6;4.2;;;;;;;8.73;38.87305;942.8452;;;;
2020/03/31 13:55:58;;;;;;;6;4.4;;;;;;;9.07;37.91406;942.8987;;;;
2020/03/31 13:58:23;;;;;;;5.6;3.9;;;;;;;8.79;35.75195;942.868;;;;
2020/03/31 14:00:48;;;;;;;5.3;3.9;;;;;;;8.79;36.80957;942.8901;;;;
2020/03/31 14:03:13;;;;;;;4.8;3.8;;;;;;;9.38;33.68359;942.8367;;;;
2020/03/31 14:05:38;;;;;;;5.7;3.9;;;;;;;8.42;35.25488;942.9754;;;;
2020/03/31 14:08:03;;;;;;;5.6;3.9;;;;;;;8.07;35.70313;942.9133;;;;
2020/03/31 14:10:29;;;;;;;4.8;3.9;;;;;;;7.72;33.40527;942.8708;;;;
2020/03/31 14:12:54;;;;;;;5.1;4;;;;;;;7.71;35.34473;942.8848;;;;
2020/03/31 14:15:19;;;;;;;7.2;4;;;;;;;7.49;37.14063;942.9116;;;;
2020/03/31 14:17:44;;;;;;;5.6;3.8;;;;;;;7;37.18848;942.9528;;;;
2020/03/31 14:20:09;;;;;;;5.3;4.1;;;;;;;6.55;36.16504;942.8265;;;;
2020/03/31 14:22:34;;;;;;;5.4;4;;;;;;;6.2;37.89941;942.8716;;;;
2020/03/31 14:24:59;;;;;;;5.4;4.5;;;;;;;5.98;38.81738;942.801;;;;
2020/03/31 14:27:24;;;;;;;6.2;4.3;;;;;;;6.14;37.75781;942.8657;;;;
2020/03/31 14:29:49;;;;;;;6.3;4.3;;;;;;;6.02;38.39258;942.8918;;;;
2020/03/31 14:32:14;;;;;;;6.3;4.7;;;;;;;6.05;38.78906;942.8484;;;;
2020/03/31 14:34:40;;;;;;;6.7;4.3;;;;;;;6.3;38.56348;942.823;;;;
2020/03/31 14:37:20;;;;;;;6.3;4.4;;;;;;;6.39;38.50391;942.7912;;;;
2020/03/31 14:39:45;;;;;;;6.4;4.4;;;;;;;6.32;38.80371;942.8254;;;;
2020/03/31 14:42:10;;;;;;;6.5;4.4;;;;;;;6.26;37.38477;942.8265;;;;
2020/03/31 14:44:35;;;;;;;5.4;4.1;;;;;;;6.56;36.60742;942.7954;;;;
2020/03/31 14:47:00;;;;;;;6.9;4.5;;;;;;;6.68;38.20215;942.7955;;;;
2020/03/31 14:49:25;;;;;;;8.1;4.8;;;;;;;6.89;38.18652;942.7814;;;;
2020/03/31 14:51:51;;;;;;;7.2;4.2;;;;;;;6.9;37.75684;942.6971;;;;
2020/03/31 14:54:15;;;;;;;6.8;4.2;;;;;;;6.73;38.20703;942.7724;;;;
2020/03/31 14:56:41;;;;;;;6;4.6;;;;;;;6.27;38.99121;942.7194;;;;
2020/03/31 14:59:06;;;;;;;6.5;4.6;;;;;;;6.38;39.67871;942.7551;;;;
2020/03/31 15:01:31;;;;;;;5.9;4.6;;;;;;;6.32;37.55859;942.7421;;;;
2020/03/31 15:03:56;;;;;;;6;4.5;;;;;;;6.33;37.83203;942.7056;;;;
2020/03/31 15:06:21;;;;;;;9.1;4.8;;;;;;;6.22;38.73828;942.7288;;;;
2020/03/31 15:08:46;;;;;;;6.8;4.6;;;;;;;6.26;39.02344;942.6368;;;;
2020/03/31 15:11:11;;;;;;;5.4;4.4;;;;;;;6.18;40.0791;942.7042;;;;
2020/03/31 15:13:37;;;;;;;5.4;4.7;;;;;;;6.09;39.91211;942.6593;;;;
2020/03/31 15:16:02;;;;;;;5.8;4.6;;;;;;;5.87;40.63672;942.7065;;;;
2020/03/31 15:18:27;;;;;;;5.3;4;;;;;;;5.96;39.16602;942.6691;;;;
2020/03/31 15:20:52;;;;;;;6.3;4.4;;;;;;;6.02;39.02441;942.6609;;;;
2020/03/31 15:23:17;;;;;;;5.5;4.8;;;;;;;5.99;39.95996;942.7109;;;;
2020/03/31 15:25:42;;;;;;;6.4;4.7;;;;;;;6.16;40.28027;942.7098;;;;
2020/03/31 15:28:07;;;;;;;6;4.4;;;;;;;6.28;39.53418;942.6976;;;;
2020/03/31 15:30:32;;;;;;;8.3;5.2;;;;;;;6.37;40.79785;942.7003;;;;
2020/03/31 15:32:58;;;;;;;9.7;4.9;;;;;;;6.39;39.0918;942.7421;;;;
2020/03/31 15:35:23;;;;;;;6.3;4.9;;;;;;;6.43;39.60449;942.7255;;;;